Flight Track Log - Related Links

Times and Time Zones

All times are in EDT time to prevent confusion due to time zone crossing. See the N1250V flight status page for this flight to view local times or setup timezone preferences in your user account.

Time Position Orientation Groundspeed Altitude Reporting Facility
EDT Latitude Longitude Course Direction KTS MPH feet Rate Location/Type
Fri 12:50:45 PM 38.7536 -97.7131 259° West 211 243 4,800  Level Kansas City Center
Fri 12:51:47 PM 38.7633 -97.7883 279° West 222 255 6,600 1,645 Climbing Kansas City Center
Fri 12:52:49 PM 38.7794 -97.8683 285° West 248 285 8,200 1,632 Climbing Kansas City Center
Fri 12:53:52 PM 38.7939 -97.9558 282° West 252 290 10,000 1,776 Climbing Kansas City Center
Fri 12:54:00 PM 38.8816 -98.3223 281° West  Level FlightAware Approximate
Fri 12:54:54 PM 38.8106 -98.0594 282° West 249 287 11,900  Level Kansas City Center
Fri 12:55:00 PM 38.9034 -98.4337 284° West  Level FlightAware Approximate
Fri 12:55:56 PM 38.8247 -98.1464 282° West 250 288 13,400  Level Kansas City Center
Fri 12:56:58 PM 38.8400 -98.2358 282° West 250 288 14,800 1,355 Climbing Kansas City Center
Fri 12:58:00 PM 38.8536 -98.3233 281° West 257 296 16,200 1,210 Climbing Kansas City Center
Fri 12:59:02 PM 38.8694 -98.4136 283° West 260 299 17,300 919 Climbing Kansas City Center
Fri 01:00:04 PM 38.8831 -98.5067 281° West 266 306 18,100 1,210 Climbing Kansas City Center
Fri 01:01:06 PM 38.9003 -98.6203 281° West 269 310 19,800 1,403 Climbing Kansas City Center
Fri 01:02:08 PM 38.9186 -98.7089 285° West 259 298 21,000 871 Climbing Kansas City Center
Fri 01:03:10 PM 38.9314 -98.8025 280° West 265 305 21,600 823 Climbing Kansas City Center
Fri 01:04:12 PM 38.9475 -98.8969 282° West 271 312 22,700 871 Climbing Kansas City Center
Fri 01:05:14 PM 38.9597 -98.9933 279° West 272 313 23,400 871 Climbing Kansas City Center
Fri 01:06:16 PM 38.9781 -99.1081 282° West 273 314 24,500 774 Climbing Kansas City Center
Fri 01:07:18 PM 38.9928 -99.2086 281° West 285 328 25,000 677 Climbing Kansas City Center
Fri 01:08:20 PM 39.0097 -99.3108 282° West 291 335 25,900 823 Climbing Kansas City Center
Fri 01:09:22 PM 39.0264 -99.4128 282° West 293 337 26,700 629 Climbing Kansas City Center
Fri 01:10:24 PM 39.0397 -99.5169 279° West 294 338 27,200 677 Climbing Kansas City Center
Fri 01:11:26 PM 39.0606 -99.6406 282° West 302 348 28,100 768 Climbing Kansas City Center
Fri 01:12:29 PM 39.0731 -99.7367 280° West 298 343 28,800 672 Climbing Denver Center
Fri 01:13:31 PM 39.0897 -99.8528 281° West 298 343 29,500 629 Climbing Denver Center
Fri 01:14:33 PM 39.1064 -99.9528 282° West 298 343 30,100 629 Climbing Denver Center
Fri 01:15:35 PM 39.1225 -100.0703 280° West 297 342 30,800 581 Climbing Denver Center
Fri 01:16:37 PM 39.1372 -100.1694 281° West 293 337 31,300 581 Climbing Denver Center
Fri 01:17:39 PM 39.1536 -100.2833 281° West 291 335 32,000 339 Climbing Denver Center
Fri 01:18:41 PM 39.1669 -100.3808 280° West 289 333 32,000  Level Denver Center
Fri 01:19:44 PM 39.1847 -100.5025 281° West 303 349 32,000  Level Denver Center
Fri 01:20:46 PM 39.1989 -100.6042 280° West 304 350 32,000  Level Denver Center
Fri 01:21:48 PM 39.2164 -100.7275 280° West 311 358 32,000  Level Denver Center
Fri 01:22:50 PM 39.2317 -100.8367 280° West 319 367 32,000 145 Level Denver Center
Fri 01:23:52 PM 39.2458 -100.9436 280° West 317 365 32,300 339 Climbing Denver Center
Fri 01:24:54 PM 39.2622 -101.0661 280° West 312 359 32,700 387 Climbing Denver Center
Fri 01:25:56 PM 39.2761 -101.1667 280° West 302 348 33,100 290 Climbing Denver Center
Fri 01:26:58 PM 39.2925 -101.2828 280° West 297 342 33,300 290 Climbing Denver Center
Fri 01:28:00 PM 39.3056 -101.3839 280° West 297 342 33,700 339 Climbing Denver Center
Fri 01:29:02 PM 39.3211 -101.4986 280° West 292 336 34,000 145 Climbing Denver Center
Fri 01:30:04 PM 39.3336 -101.5978 279° West 292 336 34,000  Level Denver Center
Fri 01:31:06 PM 39.3503 -101.7208 280° West 307 353 34,000  Level Denver Center
Fri 01:32:08 PM 39.3639 -101.8250 280° West 308 354 34,000  Level Denver Center
Fri 01:33:10 PM 39.3800 -101.9500 280° West 314 361 34,000  Level Denver Center
Fri 01:34:13 PM 39.3936 -102.0581 279° West 317 365 34,000  Level Denver Center
Fri 01:35:15 PM 39.4094 -102.1836 279° West 318 366 34,000  Level Denver Center
Fri 01:36:17 PM 39.4233 -102.2936 279° West 323 372 34,000  Level Denver Center
Fri 01:37:19 PM 39.4394 -102.4189 279° West 322 371 34,000  Level Denver Center
Fri 01:38:21 PM 39.4531 -102.5339 279° West 324 373 34,000  Level Denver Center
Fri 01:39:23 PM 39.4678 -102.6481 280° West 323 372 34,000  Level Denver Center
Fri 01:40:25 PM 39.4808 -102.7639 278° West 324 373 34,000  Level Denver Center
Fri 01:41:27 PM 39.4958 -102.8797 280° West 328 377 34,000  Level Denver Center
Fri 01:42:29 PM 39.5097 -102.9958 279° West 326 375 34,000  Level Denver Center
Fri 01:43:31 PM 39.5258 -103.1358 279° West 328 377 34,000  Level Denver Center
Fri 01:44:33 PM 39.5403 -103.2533 279° West 330 380 34,000  Level Denver Center
Fri 01:45:35 PM 39.5531 -103.3708 278° West 330 380 34,000  Level Denver Center
Fri 01:46:38 PM 39.5669 -103.4889 279° West 332 382 34,000  Level Denver Center
Fri 01:47:40 PM 39.5803 -103.6078 278° West 335 386 34,000  Level Denver Center
Fri 01:48:42 PM 39.5969 -103.7506 279° West 334 384 34,000  Level Denver Center
Fri 01:49:44 PM 39.6106 -103.8717 278° West 336 387 34,000  Level Denver Center
Fri 01:50:46 PM 39.6244 -103.9914 279° West 336 387 34,000  Level Denver Center
Fri 01:51:48 PM 39.6369 -104.1100 278° West 331 381 34,000  Level Denver Center
Fri 01:52:50 PM 39.6500 -104.2311 278° West 337 388 34,000  Level Denver Center
Fri 01:53:52 PM 39.6628 -104.3500 278° West 336 387 34,000  Level Denver Center
Fri 01:54:54 PM 39.6778 -104.4936 278° West 337 388 34,000  Level Denver Center
Fri 01:55:56 PM 39.6908 -104.6111 278° West 334 384 34,000  Level Denver Center
Fri 01:56:58 PM 39.6831 -104.7294 265° West 339 390 34,000  Level Denver Center
Fri 01:58:00 PM 39.6694 -104.8717 263° West 342 394 34,000 -484 Level Denver Center
Fri 01:59:02 PM 39.6647 -104.9964 267° West 351 404 33,000 -912 Descending Denver Center
Fri 02:00:05 PM 39.6600 -105.1281 267° West 364 419 32,100 -768 Descending Denver Center
Fri 02:01:07 PM 39.6589 -105.2597 269° West 366 421 31,400 -629 Descending Denver Center
Fri 02:02:09 PM 39.6578 -105.3914 269° West 367 422 30,800 -581 Descending Denver Center
Fri 02:03:11 PM 39.6561 -105.5214 269° West 363 418 30,200 -629 Descending Denver Center
Fri 02:04:13 PM 39.6592 -105.6781 272° West 361 415 29,500 -726 Descending Denver Center
Fri 02:05:15 PM 39.6683 -105.8083 275° West 361 415 28,700 -484 Descending Denver Center
Fri 02:06:17 PM 39.6769 -105.9367 275° West 360 414 28,500 -242 Descending Denver Center
Fri 02:07:19 PM 39.6825 -106.0667 273° West 362 417 28,200 -242 Descending Denver Center
Fri 02:08:21 PM 39.6517 -106.2000 253° West 360 414 28,000 -242 Descending Denver Center
Fri 02:09:23 PM 39.6250 -106.3231 254° West 356 410 27,700 -242 Descending Denver Center
Fri 02:10:25 PM 39.5972 -106.4467 254° West 356 410 27,500 -242 Descending Denver Center
Fri 02:11:27 PM 39.5619 -106.5808 251° West 356 410 27,200 -336 Descending Denver Center
Fri 02:12:30 PM 39.4969 -106.6967 234° Southwest 355 409 26,800 -1,008 Descending Denver Center
Fri 02:13:32 PM 39.4436 -106.7908 234° Southwest 341 392 25,100 -1,500 Descending Denver Center
Fri 02:14:34 PM 39.4353 -106.8953 264° West 310 357 23,700 -1,887 Descending Denver Center
Fri 02:15:36 PM 39.4581 -107.0128 284° West 302 348 21,200 -2,419 Descending Denver Center
Fri 02:16:38 PM 39.4744 -107.1111 282° West 294 338 18,700 -2,081 Descending Denver Center
Fri 02:17:40 PM 39.5125 -107.1992 299° West 274 315 16,900 -794 Descending Denver Center
Fri 02:18:54 PM 39.5161 -107.1089 87° East 254 292 16,900 -526 Level Denver Center
Fri 02:19:57 PM 39.4700 -107.0453 133° Southeast 255 293 15,700 -1,008 Descending Denver Center
Fri 02:20:59 PM 39.4175 -107.0067 150° Southeast 227 261 14,800 -1,113 Descending Denver Center
Fri 02:22:01 PM 39.3833 -106.9692 140° Southeast 174 200 13,400 -1,452 Descending Denver Center
Fri 02:23:03 PM 39.3442 -106.9264 140° Southeast 158 182 11,800 -1,694 Descending Denver Center
Fri 02:24:05 PM 39.3044 -106.9072 160° South 154 177 9,900 -1,597 Descending Denver Center
Fri 02:25:07 PM 39.2619 -106.8875 160° South 152 175 8,500 -1,355 Descending Denver Center

Login

Don't have an account? Register now (free) for customized features, flight alerts, and more!